createdAt,value
2019-02-10T00:02:03.072Z,7.68
2019-02-10T00:07:04.712Z,7.66
2019-02-10T00:12:06.222Z,7.66
2019-02-10T00:17:08.180Z,7.70
2019-02-10T00:22:09.746Z,7.69
2019-02-10T00:27:11.327Z,7.66
2019-02-10T00:32:12.878Z,7.64
2019-02-10T00:37:16.160Z,7.64
2019-02-10T00:42:17.719Z,7.69
2019-02-10T00:47:19.656Z,7.69
2019-02-10T00:52:21.179Z,7.71
2019-02-10T00:57:22.744Z,7.70
2019-02-10T01:02:24.337Z,7.69
2019-02-10T01:07:26.200Z,7.68
2019-02-10T01:12:27.726Z,7.66
2019-02-10T01:17:29.259Z,7.63
2019-02-10T01:22:30.823Z,7.58
2019-02-10T01:27:32.376Z,7.55
2019-02-10T01:32:33.914Z,7.53
2019-02-10T01:37:35.470Z,7.52
2019-02-10T01:42:37.025Z,7.50
2019-02-10T01:47:39.028Z,7.46
2019-02-10T01:52:40.677Z,7.42
2019-02-10T01:57:42.714Z,7.39
2019-02-10T02:02:44.249Z,7.36
2019-02-10T02:07:45.872Z,7.33
2019-02-10T02:12:47.710Z,7.30
2019-02-10T02:17:49.269Z,7.29
2019-02-10T02:22:50.849Z,7.25
2019-02-10T02:27:52.390Z,7.24
2019-02-10T02:32:54.264Z,7.24
2019-02-10T02:37:55.846Z,7.24
2019-02-10T02:42:57.387Z,7.18
2019-02-10T02:47:58.936Z,7.14
2019-02-10T02:53:00.523Z,7.12
2019-02-10T02:58:02.173Z,7.08
2019-02-10T03:03:04.010Z,7.06
2019-02-10T03:08:05.637Z,7.00
2019-02-10T03:13:08.018Z,6.97
2019-02-10T03:18:09.627Z,6.93
2019-02-10T03:23:11.153Z,6.86
2019-02-10T03:28:13.147Z,6.84
2019-02-10T03:33:14.947Z,6.84
2019-02-10T03:38:16.499Z,6.85
2019-02-10T03:43:18.024Z,6.81
2019-02-10T03:48:19.867Z,6.79
2019-02-10T03:53:21.382Z,6.70
2019-02-10T03:58:23.287Z,6.62
2019-02-10T04:03:24.870Z,6.53
2019-02-10T04:08:26.399Z,6.51
2019-02-10T04:13:28.115Z,6.48
2019-02-10T04:18:30.017Z,6.45
2019-02-10T04:23:31.584Z,6.42
2019-02-10T04:28:33.100Z,6.39
2019-02-10T04:33:34.666Z,6.38
2019-02-10T04:38:36.237Z,6.35
2019-02-10T04:43:37.755Z,6.41
2019-02-10T04:48:39.300Z,6.44
2019-02-10T04:53:40.921Z,6.49
2019-02-10T04:58:42.501Z,6.53
2019-02-10T05:03:44.092Z,6.54
2019-02-10T05:08:45.617Z,6.60
2019-02-10T05:13:47.171Z,6.67
2019-02-10T05:18:48.775Z,6.73
2019-02-10T05:23:50.302Z,6.79
2019-02-10T05:28:51.847Z,6.86
2019-02-10T05:33:53.397Z,6.92
2019-02-10T05:38:55.315Z,6.99
2019-02-10T05:43:56.867Z,7.05
2019-02-10T05:48:58.518Z,7.10
2019-02-10T05:54:00.071Z,7.16
2019-02-10T05:59:01.578Z,7.23
2019-02-10T06:04:03.258Z,7.28
2019-02-10T06:09:05.168Z,7.33
2019-02-10T06:14:07.036Z,7.40
2019-02-10T06:19:09.333Z,7.45
2019-02-10T06:24:10.880Z,7.51
2019-02-10T06:29:12.400Z,7.55
2019-02-10T06:34:14.019Z,7.59
2019-02-10T06:39:15.524Z,7.65
2019-02-10T06:44:17.042Z,7.72
2019-02-10T06:49:18.658Z,7.75
2019-02-10T06:54:20.246Z,7.79
2019-02-10T06:59:22.135Z,7.83
2019-02-10T07:04:24.026Z,7.86
2019-02-10T07:09:25.599Z,7.90
2019-02-10T07:14:30.294Z,7.96
2019-02-10T07:20:07.967Z,7.99
2019-02-10T07:25:51.156Z,8.05
2019-02-10T07:30:52.967Z,8.32
2019-02-10T07:36:30.611Z,8.21
2019-02-10T07:42:26.327Z,8.29
2019-02-10T07:48:21.430Z,8.34
2019-02-10T07:53:57.338Z,8.43
2019-02-10T07:59:27.611Z,8.47
2019-02-10T08:05:03.691Z,8.54
2019-02-10T08:10:43.912Z,8.56
2019-02-10T08:16:21.436Z,8.62
2019-02-10T08:22:04.534Z,8.67
2019-02-10T08:27:40.244Z,8.70
2019-02-10T08:32:57.645Z,8.68
2019-02-10T08:38:39.688Z,8.64
2019-02-10T08:44:00.924Z,8.67
2019-02-10T08:49:50.410Z,8.63
2019-02-10T08:54:52.375Z,8.58
2019-02-10T08:59:53.972Z,8.51
2019-02-10T09:04:55.698Z,8.40
2019-02-10T09:09:57.261Z,8.31
2019-02-10T09:14:59.207Z,8.30
2019-02-10T09:20:00.880Z,8.28
2019-02-10T09:25:02.577Z,8.31
2019-02-10T09:30:04.996Z,8.27
2019-02-10T09:35:07.187Z,8.24
2019-02-10T09:40:09.327Z,8.29
2019-02-10T09:45:11.180Z,8.22
2019-02-10T09:50:15.187Z,8.10
2019-02-10T09:55:16.763Z,7.99
2019-02-10T10:00:18.435Z,7.89
2019-02-10T10:05:20.002Z,7.83
2019-02-10T10:10:21.606Z,7.83
2019-02-10T10:15:23.191Z,7.78
2019-02-10T10:20:24.808Z,7.82
2019-02-10T10:25:26.759Z,7.80
2019-02-10T10:30:28.407Z,7.80
2019-02-10T10:35:30.037Z,7.85
2019-02-10T10:40:32.608Z,7.90
2019-02-10T10:45:34.180Z,7.90
2019-02-10T10:50:35.733Z,7.86
2019-02-10T10:55:37.288Z,7.78
2019-02-10T11:00:39.977Z,7.73
2019-02-10T11:05:41.497Z,7.73
2019-02-10T11:10:43.425Z,7.77
2019-02-10T11:15:44.960Z,7.86
2019-02-10T11:20:46.528Z,7.96
2019-02-10T11:25:48.072Z,8.01
2019-02-10T11:30:51.465Z,7.97
2019-02-10T11:35:53.275Z,8.01
2019-02-10T11:40:55.269Z,7.99
2019-02-10T11:45:57.988Z,8.09
2019-02-10T11:51:00.432Z,8.17
2019-02-10T11:56:02.044Z,8.35
2019-02-10T12:01:03.659Z,8.47
2019-02-10T12:06:05.176Z,8.54
2019-02-10T12:11:06.766Z,8.43
2019-02-10T12:16:08.391Z,8.35
2019-02-10T12:21:10.472Z,8.24
2019-02-10T12:26:12.011Z,8.18
2019-02-10T12:31:13.605Z,8.31
2019-02-10T12:36:15.148Z,8.40
2019-02-10T12:41:16.857Z,8.44
2019-02-10T12:46:18.483Z,8.58
2019-02-10T12:51:20.407Z,8.75
2019-02-10T12:56:21.943Z,8.64
2019-02-10T13:01:23.825Z,8.53
2019-02-10T13:06:25.672Z,8.33
2019-02-10T13:11:28.053Z,8.03
2019-02-10T13:16:29.721Z,7.73
2019-02-10T13:21:31.425Z,7.64
2019-02-10T13:26:32.995Z,7.66
2019-02-10T13:31:34.617Z,7.74
2019-02-10T13:36:36.476Z,7.90
2019-02-10T13:41:37.032Z,7.90
2019-02-10T13:46:39.186Z,7.77
2019-02-10T13:51:41.373Z,7.72
2019-02-10T13:56:42.974Z,7.73
2019-02-10T14:01:44.551Z,7.66
2019-02-10T14:06:47.531Z,7.54
2019-02-10T14:11:49.555Z,7.44
2019-02-10T14:16:51.145Z,7.29
2019-02-10T14:21:53.145Z,7.01
2019-02-10T14:26:54.717Z,6.84
2019-02-10T14:31:56.433Z,6.77
2019-02-10T14:36:58.180Z,6.63
2019-02-10T14:42:00.226Z,6.28
2019-02-10T14:47:02.328Z,6.09
2019-02-10T14:52:04.090Z,5.85
2019-02-10T14:57:05.665Z,5.77
2019-02-10T15:02:07.303Z,5.64
2019-02-10T15:07:08.937Z,5.56
2019-02-10T15:12:10.479Z,5.47
2019-02-10T15:17:12.009Z,5.44
2019-02-10T15:22:14.259Z,5.45
2019-02-10T15:27:16.173Z,5.42
2019-02-10T15:32:17.762Z,5.49
2019-02-10T15:37:19.367Z,5.51
2019-02-10T15:42:20.986Z,5.47
2019-02-10T15:47:22.579Z,5.47
2019-02-10T15:52:24.183Z,5.51
2019-02-10T15:57:25.777Z,5.49
2019-02-10T16:02:28.355Z,5.44
2019-02-10T16:07:29.827Z,5.50
2019-02-10T16:12:31.777Z,5.53
2019-02-10T16:17:33.314Z,5.54
2019-02-10T16:22:34.873Z,5.53
2019-02-10T16:27:36.559Z,5.49
2019-02-10T16:32:38.261Z,5.45
2019-02-10T16:37:39.914Z,5.39
2019-02-10T16:42:41.794Z,5.31
2019-02-10T16:47:43.333Z,5.20
2019-02-10T16:52:44.947Z,5.20
2019-02-10T16:57:47.093Z,5.01
2019-02-10T17:02:48.660Z,4.99
2019-02-10T17:07:50.622Z,4.97
2019-02-10T17:12:52.197Z,4.77
2019-02-10T17:17:54.139Z,4.71
2019-02-10T17:22:56.140Z,4.58
2019-02-10T17:27:58.233Z,4.51
2019-02-10T17:32:59.800Z,4.44
2019-02-10T17:38:10.507Z,4.44
2019-02-10T17:43:12.052Z,4.36
2019-02-10T17:48:13.657Z,4.32
2019-02-10T17:53:15.334Z,4.31
2019-02-10T17:58:16.907Z,4.28
2019-02-10T18:03:18.592Z,4.22
2019-02-10T18:08:20.111Z,4.22
2019-02-10T18:13:21.672Z,4.24
2019-02-10T18:18:23.730Z,4.23
2019-02-10T18:23:25.342Z,4.20
2019-02-10T18:28:27.197Z,4.20
2019-02-10T18:33:28.842Z,4.21
2019-02-10T18:38:30.491Z,4.05
2019-02-10T18:43:32.175Z,3.90
2019-02-10T18:48:33.760Z,3.85
2019-02-10T18:53:35.434Z,3.78
2019-02-10T18:58:37.006Z,3.81
2019-02-10T19:03:38.774Z,3.83
2019-02-10T19:08:40.411Z,3.80
2019-02-10T19:13:42.038Z,3.75
2019-02-10T19:18:43.739Z,3.67
2019-02-10T19:23:45.295Z,3.64
2019-02-10T19:28:46.835Z,3.59
2019-02-10T19:33:48.498Z,3.59
2019-02-10T19:38:50.063Z,3.62
2019-02-10T19:43:51.909Z,3.64
2019-02-10T19:48:53.622Z,3.64
2019-02-10T19:53:55.955Z,3.66
2019-02-10T19:58:57.595Z,3.71
2019-02-10T20:03:59.372Z,3.80
2019-02-10T20:09:01.013Z,3.88
2019-02-10T20:14:02.649Z,3.93
2019-02-10T20:19:04.455Z,3.98
2019-02-10T20:24:06.057Z,4.02
2019-02-10T20:29:07.684Z,4.03
2019-02-10T20:34:09.205Z,4.06
2019-02-10T20:39:10.854Z,4.08
2019-02-10T20:44:12.574Z,4.09
2019-02-10T20:49:14.171Z,4.09
2019-02-10T20:54:15.737Z,4.11
2019-02-10T20:59:17.449Z,4.09
2019-02-10T21:04:19.376Z,4.02
2019-02-10T21:09:20.933Z,3.97
2019-02-10T21:14:22.475Z,4.00
2019-02-10T21:19:24.160Z,3.99
2019-02-10T21:24:25.974Z,3.97
2019-02-10T21:29:27.689Z,3.97
2019-02-10T21:34:29.552Z,3.90
2019-02-10T21:39:31.248Z,3.91
2019-02-10T21:44:33.150Z,3.88
2019-02-10T21:49:34.793Z,3.90
2019-02-10T21:54:36.433Z,3.94
2019-02-10T21:59:38.122Z,3.98
2019-02-10T22:04:40.769Z,3.98
2019-02-10T22:09:42.913Z,3.99
2019-02-10T22:14:44.571Z,3.90
2019-02-10T22:19:46.500Z,3.88
2019-02-10T22:24:48.310Z,3.82
2019-02-10T22:29:50.354Z,3.81
2019-02-10T22:34:51.986Z,3.85
2019-02-10T22:39:53.828Z,3.85
2019-02-10T22:44:55.357Z,3.89
2019-02-10T22:49:57.150Z,3.93
2019-02-10T22:54:58.732Z,3.92
2019-02-10T23:00:00.345Z,3.94
2019-02-10T23:05:02.297Z,3.92
2019-02-10T23:10:03.891Z,3.88
2019-02-10T23:15:05.462Z,3.93
2019-02-10T23:20:07.451Z,3.94
2019-02-10T23:25:09.032Z,3.95
2019-02-10T23:30:10.604Z,3.84
2019-02-10T23:35:12.551Z,3.79
2019-02-10T23:40:14.071Z,3.78
2019-02-10T23:45:15.677Z,3.88
2019-02-10T23:50:17.242Z,4.01
2019-02-10T23:55:18.834Z,4.08
